createdAt,value
2022-09-21T03:50:34.767Z,6.30
2022-09-21T03:53:05.591Z,6.30
2022-09-21T03:55:34.922Z,6.30
2022-09-21T03:58:03.511Z,6.30
2022-09-21T04:00:32.592Z,6.30
2022-09-21T04:03:02.301Z,6.30
2022-09-21T04:05:30.717Z,6.30
2022-09-21T04:07:59.105Z,6.30
2022-09-21T04:10:33.555Z,6.30
2022-09-21T04:13:03.533Z,6.30
2022-09-21T04:15:32.548Z,6.30
2022-09-21T04:18:01.021Z,6.30
2022-09-21T04:20:29.942Z,6.30
2022-09-21T04:22:58.498Z,6.30
2022-09-21T04:25:29.117Z,6.30
2022-09-21T04:27:57.524Z,6.30
2022-09-21T04:30:26.046Z,6.30
2022-09-21T04:32:54.309Z,6.20
2022-09-21T04:35:22.974Z,6.20
2022-09-21T04:37:51.392Z,6.30
2022-09-21T04:40:19.773Z,6.30
2022-09-21T04:42:54.214Z,6.30
2022-09-21T04:45:24.025Z,6.20
2022-09-21T04:47:52.480Z,6.20
2022-09-21T04:50:20.725Z,6.20
2022-09-21T04:52:49.467Z,6.20
2022-09-21T04:55:18.106Z,6.20
2022-09-21T04:57:46.428Z,6.20
2022-09-21T05:00:17.814Z,6.20
2022-09-21T05:02:46.112Z,6.30
2022-09-21T05:05:14.986Z,6.30
2022-09-21T05:07:43.305Z,6.30
2022-09-21T05:10:11.406Z,6.30
2022-09-21T05:12:41.198Z,6.30
2022-09-21T05:15:11.454Z,6.30
2022-09-21T05:17:41.914Z,6.30
2022-09-21T05:20:11.557Z,6.40
2022-09-21T05:22:39.935Z,6.40
2022-09-21T05:25:09.899Z,6.40
2022-09-21T05:27:38.248Z,6.40
2022-09-21T05:30:07.988Z,6.40
2022-09-21T05:32:47.931Z,6.50
2022-09-21T05:35:29.646Z,6.50
2022-09-21T05:38:04.862Z,6.50
2022-09-21T05:40:34.272Z,6.60
2022-09-21T05:43:03.118Z,6.60
2022-09-21T05:45:32.068Z,6.60
2022-09-21T05:48:12.412Z,6.70
2022-09-21T05:50:57.128Z,6.80
2022-09-21T05:53:47.792Z,6.90
2022-09-21T05:56:26.327Z,7.10
2022-09-21T05:59:03.855Z,7.30
2022-09-21T06:01:43.671Z,7.50
2022-09-21T06:04:14.566Z,8.40
2022-09-21T06:06:42.999Z,10.20
2022-09-21T06:09:17.347Z,11.90
2022-09-21T06:11:45.768Z,12.50
2022-09-21T06:14:14.126Z,12.40
2022-09-21T06:16:44.056Z,12.00
2022-09-21T06:19:14.699Z,11.60
2022-09-21T06:21:43.098Z,11.50
2022-09-21T06:24:12.160Z,11.40
2022-09-21T06:26:40.474Z,11.30
2022-09-21T06:29:09.893Z,11.10
2022-09-21T06:31:38.311Z,11.00
2022-09-21T06:34:06.709Z,11.10
2022-09-21T06:36:36.614Z,11.20
2022-09-21T06:39:05.220Z,11.10
2022-09-21T06:41:33.573Z,10.80
2022-09-21T06:44:02.157Z,10.40
2022-09-21T06:46:30.643Z,10.20
2022-09-21T06:48:59.654Z,10.20
2022-09-21T06:51:27.996Z,9.90
2022-09-21T06:53:59.489Z,9.90
2022-09-21T06:56:28.012Z,9.90
2022-09-21T06:58:56.737Z,10.00
2022-09-21T07:01:25.546Z,9.90
2022-09-21T07:03:54.174Z,10.00
2022-09-21T07:06:22.634Z,10.00
2022-09-21T07:11:43.278Z,10.10
2022-09-21T07:14:11.646Z,10.30
2022-09-21T07:16:40.254Z,10.10
2022-09-21T07:19:12.145Z,10.50
2022-09-21T07:21:40.884Z,10.20
2022-09-21T07:24:12.342Z,10.30
2022-09-21T07:26:43.022Z,10.40
2022-09-21T07:29:13.621Z,10.60
2022-09-21T07:31:45.335Z,10.70
2022-09-21T07:34:13.867Z,10.90
2022-09-21T07:36:43.130Z,11.00
2022-09-21T07:39:12.598Z,11.10
2022-09-21T07:41:42.877Z,11.00
2022-09-21T07:44:11.611Z,11.10
2022-09-21T07:46:45.812Z,11.10
2022-09-21T07:49:16.834Z,10.80
2022-09-21T07:51:45.274Z,11.10
2022-09-21T07:54:15.903Z,11.00
2022-09-21T07:57:05.653Z,11.00
2022-09-21T07:59:33.050Z,11.20
2022-09-21T08:02:01.464Z,11.30
2022-09-21T08:04:30.022Z,11.30
2022-09-21T08:06:58.309Z,11.40
2022-09-21T08:09:26.733Z,11.70
2022-09-21T08:11:56.869Z,11.70
2022-09-21T08:14:26.554Z,11.80
2022-09-21T08:16:55.183Z,12.00
2022-09-21T08:19:25.971Z,11.70
2022-09-21T08:21:57.756Z,11.80
2022-09-21T08:24:27.124Z,12.10
2022-09-21T08:26:56.961Z,12.30
2022-09-21T08:29:25.973Z,12.50
2022-09-21T08:31:54.973Z,12.60
2022-09-21T08:34:24.257Z,12.70
2022-09-21T08:36:55.565Z,12.80
2022-09-21T08:39:24.639Z,12.80
2022-09-21T08:42:13.402Z,12.90
2022-09-21T08:44:44.499Z,12.90
2022-09-21T08:47:18.063Z,12.80
2022-09-21T08:49:52.494Z,12.60
2022-09-21T08:52:23.041Z,12.70
2022-09-21T08:54:56.989Z,12.90
2022-09-21T08:57:30.635Z,12.90
2022-09-21T09:00:00.256Z,13.10
2022-09-21T09:02:42.804Z,13.20
2022-09-21T09:05:27.173Z,13.40
2022-09-21T09:08:29.261Z,13.60
2022-09-21T09:11:06.755Z,13.50
2022-09-21T09:13:52.351Z,13.80
2022-09-21T09:16:29.148Z,13.70
2022-09-21T09:19:04.074Z,12.80
2022-09-21T09:21:37.915Z,14.10
2022-09-21T09:24:11.096Z,14.20
2022-09-21T09:26:44.833Z,14.10
2022-09-21T09:29:23.279Z,14.20
2022-09-21T09:31:55.616Z,14.30
2022-09-21T09:34:31.143Z,14.30
2022-09-21T09:37:02.713Z,14.30
2022-09-21T09:39:32.014Z,14.20
2022-09-21T09:42:16.255Z,14.10
2022-09-21T09:45:03.474Z,14.10
2022-09-21T09:47:43.583Z,14.10
2022-09-21T09:50:21.958Z,14.10
2022-09-21T09:52:54.425Z,14.10
2022-09-21T09:55:38.309Z,14.10
2022-09-21T09:58:09.105Z,14.00
2022-09-21T10:00:40.895Z,14.10
2022-09-21T10:03:18.481Z,14.10
2022-09-21T10:05:47.242Z,14.20
2022-09-21T10:08:31.355Z,14.30
2022-09-21T10:11:00.549Z,14.50
2022-09-21T10:13:31.781Z,14.50
2022-09-21T10:16:04.116Z,14.60
2022-09-21T10:18:39.933Z,14.70
2022-09-21T10:21:10.215Z,14.80
2022-09-21T10:23:39.604Z,14.90
2022-09-21T10:26:12.346Z,15.00
2022-09-21T10:28:56.893Z,15.20
2022-09-21T10:31:28.592Z,15.40
2022-09-21T10:34:08.893Z,15.50
2022-09-21T10:36:38.973Z,15.60
2022-09-21T10:39:29.619Z,15.70
2022-09-21T10:42:07.853Z,15.80
2022-09-21T10:44:42.772Z,16.00
2022-09-21T10:47:35.173Z,16.10
2022-09-21T10:50:06.234Z,16.10
2022-09-21T10:52:37.373Z,15.90
2022-09-21T10:55:08.563Z,16.20
2022-09-21T10:57:37.362Z,16.20
2022-09-21T11:00:29.424Z,16.10
2022-09-21T11:03:01.860Z,16.10
2022-09-21T11:05:34.019Z,16.10
2022-09-21T11:08:07.267Z,16.10
2022-09-21T11:10:44.222Z,16.00
2022-09-21T11:13:25.236Z,16.00
2022-09-21T11:15:59.057Z,15.90
2022-09-21T11:18:41.194Z,16.00
2022-09-21T11:21:19.275Z,16.10
2022-09-21T11:23:56.691Z,16.30
2022-09-21T11:26:30.340Z,16.50
2022-09-21T11:29:06.921Z,16.60
2022-09-21T11:31:58.383Z,16.60
2022-09-21T11:34:56.114Z,16.50
2022-09-21T11:37:40.424Z,16.40
2022-09-21T11:40:26.653Z,16.30
2022-09-21T11:43:10.182Z,16.40
2022-09-21T11:46:07.029Z,16.50
2022-09-21T11:48:53.632Z,16.70
2022-09-21T11:51:39.730Z,17.00
2022-09-21T11:54:39.234Z,17.10
2022-09-21T11:57:18.986Z,17.30
2022-09-21T12:00:16.191Z,17.30
2022-09-21T12:03:25.875Z,17.50
2022-09-21T12:06:16.854Z,17.50
2022-09-21T12:09:12.686Z,17.30
2022-09-21T12:11:44.762Z,17.10
2022-09-21T12:14:23.833Z,17.00
2022-09-21T12:17:00.418Z,17.00
2022-09-21T12:19:38.013Z,16.90
2022-09-21T12:22:12.002Z,16.80
2022-09-21T12:24:48.501Z,16.70
2022-09-21T12:27:26.723Z,16.50
2022-09-21T12:30:00.524Z,16.50
2022-09-21T12:32:43.194Z,16.40
2022-09-21T12:35:17.913Z,16.40
2022-09-21T12:37:49.362Z,16.50
2022-09-21T12:40:25.404Z,16.60
2022-09-21T12:42:59.909Z,16.70
2022-09-21T12:45:33.614Z,16.80
2022-09-21T12:48:06.842Z,16.70
2022-09-21T12:50:41.906Z,16.70
2022-09-21T12:53:16.847Z,16.80
2022-09-21T12:55:53.206Z,16.80
2022-09-21T12:58:50.816Z,16.80
2022-09-21T13:01:30.829Z,16.70
2022-09-21T13:04:21.982Z,16.70
2022-09-21T13:07:18.230Z,16.60
2022-09-21T13:09:51.376Z,16.60
2022-09-21T13:12:25.138Z,16.50
2022-09-21T13:14:58.903Z,16.50
2022-09-21T13:17:32.314Z,16.60
2022-09-21T13:20:02.782Z,16.60
2022-09-21T13:22:34.023Z,16.70
2022-09-21T13:25:06.331Z,16.90
2022-09-21T13:28:04.603Z,17.00
2022-09-21T13:30:36.561Z,17.00
2022-09-21T13:33:26.264Z,16.90
2022-09-21T13:36:12.455Z,16.80
2022-09-21T13:39:06.414Z,16.70
2022-09-21T13:41:58.734Z,16.80
2022-09-21T13:44:41.342Z,16.90
2022-09-21T13:47:11.602Z,17.00
2022-09-21T13:49:54.848Z,16.80
2022-09-21T13:52:35.575Z,16.70
2022-09-21T13:55:06.514Z,16.50
2022-09-21T13:57:39.721Z,16.40
2022-09-21T14:00:45.097Z,16.30
2022-09-21T14:03:23.736Z,16.20
2022-09-21T14:05:55.041Z,16.00
2022-09-21T14:08:32.955Z,15.80
2022-09-21T14:11:05.501Z,15.70
2022-09-21T14:13:37.481Z,15.50
2022-09-21T14:16:45.311Z,15.40
2022-09-21T14:20:09.785Z,15.30
2022-09-21T14:22:45.577Z,15.20
2022-09-21T14:25:31.053Z,15.20
2022-09-21T14:28:13.317Z,15.20
2022-09-21T14:30:43.182Z,15.10
2022-09-21T14:33:26.860Z,15.20
2022-09-21T14:35:57.983Z,15.30
2022-09-21T14:38:29.967Z,15.30
2022-09-21T14:41:05.275Z,15.40
2022-09-21T14:43:35.635Z,15.50
2022-09-21T14:46:37.171Z,15.60
2022-09-21T14:49:25.143Z,15.80
2022-09-21T14:52:12.298Z,15.90
2022-09-21T14:54:54.822Z,16.00
2022-09-21T14:57:45.942Z,16.10
2022-09-21T15:00:26.639Z,16.20
2022-09-21T15:03:11.054Z,16.30
2022-09-21T15:05:42.590Z,16.40
2022-09-21T15:08:49.185Z,16.40
2022-09-21T15:11:23.744Z,16.40
2022-09-21T15:14:18.236Z,16.30
2022-09-21T15:16:48.864Z,16.20
2022-09-21T15:19:24.096Z,16.00
2022-09-21T15:21:56.905Z,15.80
2022-09-21T15:24:33.305Z,15.60
2022-09-21T15:27:10.657Z,15.50
2022-09-21T15:29:45.317Z,15.40
2022-09-21T15:32:26.730Z,15.30
2022-09-21T15:35:02.432Z,15.30
2022-09-21T15:37:35.899Z,15.20
2022-09-21T15:40:07.546Z,15.20
2022-09-21T15:42:44.130Z,15.20
2022-09-21T15:45:18.251Z,15.30
2022-09-21T15:47:48.969Z,15.30
2022-09-21T15:50:20.358Z,15.30
2022-09-21T15:52:53.616Z,15.20
2022-09-21T15:55:23.378Z,14.10
2022-09-21T15:57:56.559Z,15.20
2022-09-21T16:00:31.850Z,15.20
2022-09-21T16:03:07.145Z,15.20
2022-09-21T16:05:45.825Z,15.20
2022-09-21T16:08:28.111Z,15.20
2022-09-21T16:11:19.291Z,15.10
2022-09-21T16:14:06.679Z,15.10
2022-09-21T16:17:14.071Z,15.00
2022-09-21T16:19:43.590Z,15.00
2022-09-21T16:22:14.868Z,14.90
2022-09-21T16:24:47.039Z,14.90
2022-09-21T16:27:18.930Z,14.90
2022-09-21T16:29:50.330Z,14.80
2022-09-21T16:32:32.146Z,14.80
2022-09-21T16:35:28.070Z,14.70
2022-09-21T16:38:00.636Z,14.60
2022-09-21T16:40:29.586Z,14.50
2022-09-21T16:42:59.133Z,14.40
2022-09-21T16:45:32.101Z,14.30
2022-09-21T16:48:05.452Z,14.20
2022-09-21T16:50:34.000Z,14.10
2022-09-21T16:53:02.588Z,14.00
2022-09-21T16:55:30.999Z,14.00
2022-09-21T16:58:00.410Z,13.90
2022-09-21T17:00:32.761Z,13.80
2022-09-21T17:03:02.699Z,13.70
2022-09-21T17:05:31.523Z,13.60
2022-09-21T17:08:00.890Z,13.50
2022-09-21T17:10:33.053Z,13.40
2022-09-21T17:13:01.548Z,13.40
2022-09-21T17:15:32.749Z,13.30
2022-09-21T17:18:02.889Z,13.20
2022-09-21T17:20:37.209Z,13.10
2022-09-21T17:23:05.639Z,13.00
2022-09-21T17:25:35.295Z,12.90
2022-09-21T17:28:12.512Z,12.80
2022-09-21T17:30:42.854Z,12.70
2022-09-21T17:33:12.652Z,12.60
2022-09-21T17:35:43.421Z,12.60
2022-09-21T17:38:14.577Z,12.50
2022-09-21T17:40:43.879Z,12.40
2022-09-21T17:43:50.310Z,12.30
2022-09-21T17:46:29.453Z,12.30
2022-09-21T17:49:01.170Z,12.20
2022-09-21T17:51:47.474Z,12.10
2022-09-21T17:54:16.748Z,12.00
2022-09-21T17:56:52.730Z,12.00
2022-09-21T17:59:31.801Z,11.90
2022-09-21T18:02:01.308Z,11.90
2022-09-21T18:04:35.113Z,11.50
2022-09-21T18:07:04.250Z,11.70
2022-09-21T18:09:33.151Z,11.70
2022-09-21T18:12:39.633Z,11.60
2022-09-21T18:15:20.809Z,11.50
2022-09-21T18:18:04.579Z,11.40
2022-09-21T18:20:45.824Z,11.40
2022-09-21T18:23:22.962Z,11.30
2022-09-21T18:25:57.360Z,11.30
2022-09-21T18:28:37.979Z,11.20
2022-09-21T18:31:30.177Z,11.20
2022-09-21T18:34:14.025Z,11.10
2022-09-21T18:36:52.085Z,11.10
2022-09-21T18:39:28.531Z,11.00
2022-09-21T18:42:09.584Z,10.90
2022-09-21T18:44:44.841Z,10.90
2022-09-21T18:47:20.519Z,10.80
2022-09-21T18:49:56.652Z,10.70
2022-09-21T18:52:39.889Z,10.70
2022-09-21T18:55:19.338Z,10.60
2022-09-21T18:57:48.819Z,10.60
2022-09-21T19:00:18.372Z,10.60
2022-09-21T19:03:05.388Z,10.60
2022-09-21T19:05:38.705Z,10.50
2022-09-21T19:08:15.943Z,10.50
2022-09-21T19:10:51.027Z,10.40
2022-09-21T19:13:37.171Z,10.30
2022-09-21T19:16:15.427Z,10.30
2022-09-21T19:18:52.428Z,10.20
2022-09-21T19:21:32.757Z,10.10
2022-09-21T19:24:12.975Z,10.10
2022-09-21T19:26:50.977Z,10.10
2022-09-21T19:29:54.730Z,10.00
2022-09-21T19:32:35.929Z,10.30
2022-09-21T19:35:17.118Z,9.90
2022-09-21T19:37:48.603Z,9.90
2022-09-21T19:40:21.936Z,9.80
2022-09-21T19:43:06.357Z,9.80
2022-09-21T19:45:45.585Z,9.80
2022-09-21T19:48:17.271Z,9.70
2022-09-21T19:50:54.999Z,9.70
2022-09-21T19:53:41.640Z,9.60
2022-09-21T19:56:35.318Z,9.60
2022-09-21T19:59:21.817Z,9.60
2022-09-21T20:01:59.861Z,9.60
2022-09-21T20:04:34.752Z,9.60
2022-09-21T20:07:11.031Z,9.60
2022-09-21T20:09:46.263Z,9.60
2022-09-21T20:12:23.015Z,9.60
2022-09-21T20:14:57.502Z,9.60
2022-09-21T20:17:35.008Z,9.50
2022-09-21T20:20:12.714Z,9.50
2022-09-21T20:22:42.501Z,9.50
2022-09-21T20:25:17.614Z,9.50
2022-09-21T20:27:50.477Z,9.50
2022-09-21T20:30:21.172Z,9.60
2022-09-21T20:32:59.429Z,9.60
2022-09-21T20:35:29.717Z,9.60
2022-09-21T20:38:02.450Z,9.60
2022-09-21T20:40:32.773Z,9.60
2022-09-21T20:43:03.229Z,9.60
2022-09-21T20:45:32.517Z,9.60
2022-09-21T20:48:13.401Z,9.60
2022-09-21T20:50:42.459Z,9.60
2022-09-21T20:53:11.495Z,9.60
2022-09-21T20:55:41.187Z,9.60
2022-09-21T20:58:14.004Z,9.60
2022-09-21T21:00:43.652Z,9.70
2022-09-21T21:03:12.745Z,9.70
2022-09-21T21:05:41.425Z,9.70
2022-09-21T21:08:09.758Z,9.80
2022-09-21T21:10:38.292Z,9.80
2022-09-21T21:13:06.926Z,9.80
2022-09-21T21:15:36.842Z,9.80
2022-09-21T21:18:05.614Z,9.90
2022-09-21T21:20:34.005Z,9.90
2022-09-21T21:23:07.212Z,9.90
2022-09-21T21:25:36.552Z,9.90
2022-09-21T21:28:05.354Z,9.90
2022-09-21T21:30:38.422Z,9.90
2022-09-21T21:33:07.052Z,9.90
2022-09-21T21:35:36.568Z,9.90
2022-09-21T21:38:05.169Z,10.80
2022-09-21T21:40:33.402Z,9.90
2022-09-21T21:43:03.565Z,9.90
2022-09-21T21:45:33.053Z,9.90
2022-09-21T21:48:03.273Z,9.90
2022-09-21T21:50:31.865Z,9.90
2022-09-21T21:53:00.352Z,9.90
2022-09-21T21:55:28.724Z,9.90
2022-09-21T21:57:58.464Z,9.90
2022-09-21T22:00:27.229Z,9.90
2022-09-21T22:02:57.773Z,10.00
2022-09-21T22:05:27.607Z,10.00
2022-09-21T22:07:56.524Z,10.00
2022-09-21T22:10:25.772Z,10.00
2022-09-21T22:12:57.904Z,10.00
2022-09-21T22:15:26.601Z,10.00
2022-09-21T22:17:55.254Z,10.00
2022-09-21T22:20:23.977Z,10.00
2022-09-21T22:22:53.941Z,10.00
2022-09-21T22:25:28.610Z,10.00
2022-09-21T22:27:57.194Z,10.10
2022-09-21T22:30:26.516Z,10.10
2022-09-21T22:32:55.098Z,10.10
2022-09-21T22:35:23.894Z,10.10
2022-09-21T22:37:54.702Z,10.00
2022-09-21T22:40:23.609Z,10.00
2022-09-21T22:42:52.212Z,10.00
2022-09-21T22:45:20.522Z,10.00
2022-09-21T22:47:49.071Z,11.50
